This is the latest recevied weather packets stored in our database for station/object N0HOT. If no packets are shown the sender has not sent any weather packets the latest 10 day(s).
| Time | Temp. | Humidity | Pressure | Rain* | Wind** | Luminosity | Snow |
|---|---|---|---|---|---|---|---|
| 1777018532 | 13.89° C | 89% | 1001.8 hPa | 0 mm | - | 0 W/m² | - |
| 1777018230 | 13.89° C | 89% | 1001.8 hPa | 0 mm | - | 0 W/m² | - |
| 1777017927 | 14.44° C | 89% | 1002.1 hPa | 0 mm | - | 0 W/m² | - |
| 1777017623 | 14.44° C | 89% | 1002.1 hPa | 0 mm | - | 0 W/m² | - |
| 1777017320 | 14.44° C | 89% | 1002.1 hPa | 0 mm | - | 0 W/m² | - |
| 1777017015 | 14.44° C | 89% | 1002.1 hPa | 0 mm | - | 0 W/m² | - |
| 1777016713 | 14.44° C | 89% | 1002.1 hPa | 0 mm | - | 0 W/m² | - |
| 1777016409 | 14.44° C | 89% | 1002.1 hPa | 0 mm | - | 0 W/m² | - |
| 1777016106 | 14.44° C | 89% | 1002.5 hPa | 0 mm | - | 0 W/m² | - |
| 1777015803 | 14.44° C | 89% | 1002.1 hPa | 0 mm | - | 0 W/m² | - |
| 1777015500 | 14.44° C | 89% | 1002.1 hPa | 0 mm | - | 0 W/m² | - |
| 1777015196 | 14.44° C | 89% | 1002.1 hPa | 0 mm | - | 0 W/m² | - |
| 1777014891 | 14.44° C | 89% | 1002.1 hPa | 0 mm | - | 0 W/m² | - |
| 1777014591 | 14.44° C | 89% | 1002.1 hPa | 0 mm | - | 0 W/m² | - |
| 1777014286 | 14.44° C | 89% | 1002.1 hPa | 0 mm | - | 0 W/m² | - |
| 1777013982 | 14.44° C | 89% | 1002.1 hPa | 0 mm | - | 0 W/m² | - |
| 1777013679 | 14.44° C | 88% | 1002.1 hPa | 0 mm | - | 0 W/m² | - |
| 1777013377 | 14.44° C | 88% | 1001.8 hPa | 0 mm | - | 0 W/m² | - |
| 1777013073 | 14.44° C | 88% | 1001.8 hPa | 1.27 mm | - | 0 W/m² | - |
| 1777012770 | 14.44° C | 88% | 1002.1 hPa | 1.27 mm | - | 0 W/m² | - |
| 1777012466 | 14.44° C | 88% | 1002.1 hPa | 1.78 mm | - | 0 W/m² | - |
| 1777012161 | 14.44° C | 88% | 1002.8 hPa | 4.83 mm | - | 0 W/m² | - |
| 1777011858 | 14.44° C | 88% | 1003.2 hPa | 6.1 mm | - | 0 W/m² | - |
| 1777011554 | 14.44° C | 88% | 1003.2 hPa | 4.83 mm | - | 0 W/m² | - |
| 1777011251 | 14.44° C | 88% | 1003.5 hPa | 4.83 mm | - | 0 W/m² | - |
* Rain latest hour (hover to see other rain measurements)
** Current wind speed in m/s (hover to see current wind gust speed)